Time;durP1;ratioP1;P1;durP2;ratioP2;P2;SDS_P1;SDS_P2;PMS_P1;PMS_P2;Temp;Humidity;BMP_temperature;BMP_pressure;BME280_temperature;BME280_humidity;BME280_pressure;Samples;Min_cycle;Max_cycle;Signal;HPM_P1;HPM_P2
2021/04/18 00:01:32;;;;;;;9.27;8.48;;;6.60;99.90;;;;;;5053474;28;20239;-40
2021/04/18 00:04:00;;;;;;;10.65;9.70;;;6.60;99.90;;;;;;5052605;28;20216;-40
2021/04/18 00:06:27;;;;;;;10.50;9.60;;;6.60;99.90;;;;;;5053578;28;20208;-40
2021/04/18 00:08:55;;;;;;;10.88;9.80;;;6.60;99.90;;;;;;5053201;28;20303;-40
2021/04/18 00:11:22;;;;;;;9.98;9.07;;;6.50;99.90;;;;;;5053308;28;20243;-40
2021/04/18 00:13:48;;;;;;;9.25;8.35;;;6.50;99.90;;;;;;5053397;28;20296;-40
2021/04/18 00:16:17;;;;;;;10.20;9.30;;;6.50;99.90;;;;;;5053183;28;20258;-48
2021/04/18 00:18:44;;;;;;;9.98;9.07;;;6.50;99.90;;;;;;5053432;28;20247;-40
2021/04/18 00:21:11;;;;;;;9.30;8.50;;;6.50;99.90;;;;;;5053374;28;20207;-40
2021/04/18 00:23:38;;;;;;;10.20;8.80;;;6.50;99.90;;;;;;5053178;28;20231;-40
2021/04/18 00:26:07;;;;;;;10.50;9.60;;;6.50;99.90;;;;;;5052998;28;20622;-40
2021/04/18 00:28:34;;;;;;;10.02;9.15;;;6.50;99.90;;;;;;5053105;28;20299;-39
2021/04/18 00:31:01;;;;;;;9.27;8.48;;;6.50;99.90;;;;;;5053036;28;20745;-40
2021/04/18 00:33:28;;;;;;;9.93;8.95;;;6.40;99.90;;;;;;5053120;28;20567;-40
2021/04/18 00:35:55;;;;;;;11.50;10.50;;;6.40;99.90;;;;;;5052954;28;20227;-40
2021/04/18 00:38:22;;;;;;;11.00;10.00;;;6.40;99.90;;;;;;5052822;28;20306;-40
2021/04/18 00:40:49;;;;;;;9.85;8.95;;;6.40;99.90;;;;;;5052737;28;20263;-40
2021/04/18 00:43:17;;;;;;;10.20;9.23;;;6.30;99.90;;;;;;5052729;28;20298;-40
2021/04/18 00:45:45;;;;;;;10.65;9.65;;;6.30;99.90;;;;;;5052666;28;20390;-40
2021/04/18 00:48:12;;;;;;;10.77;9.77;;;6.30;99.90;;;;;;5052791;28;20396;-41
2021/04/18 00:50:40;;;;;;;10.68;9.65;;;6.20;99.90;;;;;;5052762;28;20291;-40
2021/04/18 00:53:08;;;;;;;11.50;10.50;;;6.20;99.90;;;;;;5052589;28;20240;-40
2021/04/18 00:55:37;;;;;;;10.10;9.13;;;6.20;99.90;;;;;;5052585;28;20291;-40
2021/04/18 00:58:05;;;;;;;10.07;9.25;;;6.20;99.90;;;;;;5052266;28;20216;-43
2021/04/18 01:00:34;;;;;;;10.75;9.75;;;6.10;99.90;;;;;;5052496;28;20326;-40
2021/04/18 01:03:02;;;;;;;10.93;9.98;;;6.10;99.90;;;;;;5052555;28;20254;-40
2021/04/18 01:05:29;;;;;;;10.88;9.98;;;6.00;99.90;;;;;;5052378;28;20208;-40
2021/04/18 01:07:57;;;;;;;11.68;10.55;;;6.00;99.90;;;;;;5051055;28;20277;-40
2021/04/18 01:10:24;;;;;;;11.30;10.20;;;6.00;99.90;;;;;;5052206;28;20303;-40
2021/04/18 01:12:51;;;;;;;10.98;9.90;;;6.00;99.90;;;;;;5052435;28;20257;-40
2021/04/18 01:15:18;;;;;;;11.73;10.52;;;6.00;99.90;;;;;;5052413;28;20288;-40
2021/04/18 01:17:46;;;;;;;11.32;10.32;;;6.00;99.90;;;;;;5052107;28;20218;-40
2021/04/18 01:20:17;;;;;;;11.55;10.45;;;6.10;99.90;;;;;;5052013;28;20593;-40
2021/04/18 01:22:46;;;;;;;11.25;10.23;;;6.00;99.90;;;;;;5052143;28;20270;-40
2021/04/18 01:25:15;;;;;;;10.73;9.75;;;6.10;99.90;;;;;;5052316;28;20563;-40
2021/04/18 01:27:44;;;;;;;11.75;10.65;;;6.10;99.90;;;;;;5051865;28;20285;-40
2021/04/18 01:30:15;;;;;;;11.75;10.65;;;6.10;99.90;;;;;;5052112;28;20258;-41
2021/04/18 01:32:45;;;;;;;12.10;11.00;;;6.10;99.90;;;;;;5052273;28;20239;-41
2021/04/18 01:35:13;;;;;;;11.85;10.75;;;6.10;99.90;;;;;;5051990;28;20235;-41
2021/04/18 01:37:41;;;;;;;11.35;10.25;;;6.10;99.90;;;;;;5052114;28;20287;-41
2021/04/18 01:40:13;;;;;;;11.52;10.38;;;6.10;99.90;;;;;;5051890;28;20235;-41
2021/04/18 01:42:40;;;;;;;12.38;11.25;;;6.10;99.90;;;;;;5052216;28;20212;-41
2021/04/18 01:45:08;;;;;;;13.35;12.10;;;6.10;99.90;;;;;;5052026;28;20208;-41
2021/04/18 01:47:36;;;;;;;12.10;10.90;;;6.00;99.90;;;;;;5051986;28;20218;-40
2021/04/18 01:50:04;;;;;;;10.93;9.82;;;6.00;99.90;;;;;;5051889;28;20246;-40
2021/04/18 01:52:31;;;;;;;11.70;10.63;;;6.00;99.90;;;;;;5051893;28;20693;-41
2021/04/18 01:54:59;;;;;;;12.20;11.00;;;6.00;99.90;;;;;;5051885;28;20279;-40
2021/04/18 01:57:27;;;;;;;12.02;10.93;;;6.10;99.90;;;;;;5051738;28;20315;-40
2021/04/18 01:59:54;;;;;;;13.00;11.77;;;6.00;99.90;;;;;;5051705;28;20698;-40
2021/04/18 02:02:21;;;;;;;12.80;11.60;;;6.10;99.90;;;;;;5051746;28;20352;-40
2021/04/18 02:04:48;;;;;;;14.73;12.98;;;6.20;99.90;;;;;;5051742;28;20298;-40
2021/04/18 02:07:15;;;;;;;13.88;12.50;;;6.20;99.90;;;;;;5051660;28;20208;-40
2021/04/18 02:09:42;;;;;;;14.23;12.85;;;6.20;99.90;;;;;;5051824;28;20254;-40
2021/04/18 02:12:10;;;;;;;12.65;11.45;;;6.10;99.90;;;;;;5052162;28;20352;-40
2021/04/18 02:14:38;;;;;;;12.25;11.15;;;6.10;99.90;;;;;;5051734;28;20659;-41
2021/04/18 02:17:05;;;;;;;13.48;12.23;;;6.10;99.90;;;;;;5051432;28;20216;-40
2021/04/18 02:19:33;;;;;;;12.73;11.52;;;6.10;99.90;;;;;;5051810;28;20593;-40
2021/04/18 02:22:00;;;;;;;11.55;10.30;;;6.10;99.90;;;;;;5051658;28;20243;-40
2021/04/18 02:24:28;;;;;;;12.43;11.27;;;6.00;99.90;;;;;;5051676;28;20235;-40
2021/04/18 02:26:55;;;;;;;13.13;11.68;;;6.00;99.90;;;;;;5051413;28;20732;-40
2021/04/18 02:29:22;;;;;;;13.05;11.70;;;6.00;99.90;;;;;;5055553;28;20250;-40
2021/04/18 02:31:51;;;;;;;12.02;10.93;;;6.00;99.90;;;;;;5055310;28;20291;-40
2021/04/18 02:34:18;;;;;;;12.45;11.25;;;6.00;99.90;;;;;;5055562;28;20216;-40
2021/04/18 02:36:45;;;;;;;12.27;11.18;;;6.00;99.90;;;;;;5055744;28;20258;-40
2021/04/18 02:39:12;;;;;;;13.15;11.95;;;6.00;99.90;;;;;;5055123;28;20662;-40
2021/04/18 02:41:39;;;;;;;14.07;12.68;;;6.00;99.90;;;;;;5055247;28;20212;-40
2021/04/18 02:44:06;;;;;;;13.02;11.73;;;6.10;99.90;;;;;;5055232;28;20292;-40
2021/04/18 02:46:33;;;;;;;13.18;11.93;;;6.00;99.90;;;;;;5055032;28;20247;-40
2021/04/18 02:49:02;;;;;;;15.25;12.27;;;6.00;99.90;;;;;;5054971;28;20250;-40
2021/04/18 02:51:30;;;;;;;13.27;12.07;;;5.90;99.90;;;;;;5055111;28;20239;-40
2021/04/18 02:53:59;;;;;;;13.80;12.50;;;5.90;99.90;;;;;;5055144;28;20302;-40
2021/04/18 02:56:26;;;;;;;13.38;12.07;;;5.90;99.90;;;;;;5055089;28;20581;-41
2021/04/18 02:58:53;;;;;;;14.13;12.77;;;6.00;99.90;;;;;;5054890;28;20411;-41
2021/04/18 03:01:20;;;;;;;12.68;11.48;;;6.00;99.90;;;;;;5054782;28;20250;-40
2021/04/18 03:03:48;;;;;;;14.15;12.77;;;6.00;99.90;;;;;;5054816;28;20211;-41
2021/04/18 03:06:16;;;;;;;14.05;12.75;;;5.90;99.90;;;;;;5054872;28;20551;-41
2021/04/18 03:08:43;;;;;;;14.05;12.52;;;5.90;99.90;;;;;;5054844;28;20204;-40
2021/04/18 03:11:11;;;;;;;14.73;13.27;;;5.80;99.90;;;;;;5054539;28;20243;-40
2021/04/18 03:13:38;;;;;;;13.13;11.93;;;5.80;99.90;;;;;;5054891;28;20239;-41
2021/04/18 03:16:07;;;;;;;14.43;12.77;;;5.80;99.90;;;;;;5054764;28;20234;-40
2021/04/18 03:18:34;;;;;;;13.70;12.40;;;5.80;99.90;;;;;;5054743;28;20215;-40
2021/04/18 03:21:01;;;;;;;14.48;13.07;;;5.80;99.90;;;;;;5054516;28;20328;-40
2021/04/18 03:23:29;;;;;;;14.95;12.88;;;5.70;99.90;;;;;;5054510;28;20258;-40
2021/04/18 03:25:56;;;;;;;12.93;11.57;;;5.70;99.90;;;;;;5054270;28;20274;-40
2021/04/18 03:28:23;;;;;;;14.00;12.60;;;5.70;99.90;;;;;;5054407;28;20208;-41
2021/04/18 03:30:51;;;;;;;14.10;12.65;;;5.70;99.90;;;;;;5054339;28;20212;-40
2021/04/18 03:33:18;;;;;;;14.50;12.80;;;5.70;99.90;;;;;;5054233;28;20266;-40
2021/04/18 03:35:45;;;;;;;14.93;13.43;;;5.70;99.90;;;;;;5054347;28;20569;-41
2021/04/18 03:38:13;;;;;;;13.70;12.50;;;5.80;99.90;;;;;;5053822;28;20250;-41
2021/04/18 03:40:42;;;;;;;14.05;12.75;;;5.90;99.90;;;;;;5053552;28;20322;-40
2021/04/18 03:43:09;;;;;;;14.25;12.90;;;5.90;99.90;;;;;;5054060;28;20302;-40
2021/04/18 03:45:36;;;;;;;14.07;12.68;;;6.00;99.90;;;;;;5054171;28;20207;-41
2021/04/18 03:48:04;;;;;;;15.80;13.10;;;6.00;99.90;;;;;;5054117;28;20222;-41
2021/04/18 03:50:31;;;;;;;14.55;13.15;;;6.00;99.90;;;;;;5053954;28;20230;-41
2021/04/18 03:52:59;;;;;;;15.68;14.10;;;6.00;99.90;;;;;;5053938;28;20208;-41
2021/04/18 03:55:26;;;;;;;16.08;14.57;;;5.90;99.90;;;;;;5054131;28;20311;-44
2021/04/18 03:57:54;;;;;;;16.05;13.13;;;5.90;99.90;;;;;;5053955;28;20208;-41
2021/04/18 04:00:23;;;;;;;15.82;13.45;;;5.80;99.90;;;;;;5053950;28;20278;-41
2021/04/18 04:02:50;;;;;;;14.60;13.15;;;5.80;99.90;;;;;;5053669;28;20212;-41
2021/04/18 04:05:17;;;;;;;14.38;13.07;;;5.80;99.90;;;;;;5053541;28;20294;-41
2021/04/18 04:07:44;;;;;;;16.27;14.68;;;5.90;99.90;;;;;;5053453;28;20643;-41
2021/04/18 04:10:12;;;;;;;14.65;13.20;;;5.90;99.90;;;;;;5053803;28;20287;-41
2021/04/18 04:12:39;;;;;;;14.05;12.60;;;6.00;99.90;;;;;;5053469;28;20631;-41
2021/04/18 04:15:07;;;;;;;13.52;12.13;;;6.00;99.90;;;;;;5053533;28;20609;-41
2021/04/18 04:17:34;;;;;;;13.93;12.52;;;6.10;99.90;;;;;;5053461;28;20265;-41
2021/04/18 04:20:02;;;;;;;14.38;13.02;;;6.10;99.90;;;;;;5053212;28;20235;-41
2021/04/18 04:22:29;;;;;;;14.68;13.25;;;6.10;99.90;;;;;;5053524;28;20303;-41
2021/04/18 04:24:56;;;;;;;15.43;13.93;;;6.10;99.90;;;;;;5053181;28;20559;-41
2021/04/18 04:27:23;;;;;;;15.18;13.68;;;6.10;99.90;;;;;;5053021;28;20331;-40
2021/04/18 04:29:52;;;;;;;15.32;13.90;;;6.20;99.90;;;;;;5053309;28;20205;-41
2021/04/18 04:32:20;;;;;;;15.25;13.85;;;6.30;99.90;;;;;;5053060;28;20539;-41
2021/04/18 04:34:47;;;;;;;15.00;13.43;;;6.30;99.90;;;;;;5052976;28;20211;-41
2021/04/18 04:37:14;;;;;;;14.65;13.25;;;6.40;99.90;;;;;;5053175;28;20303;-41
2021/04/18 04:39:41;;;;;;;14.68;13.27;;;6.30;99.90;;;;;;5052791;28;20646;-41
2021/04/18 04:42:08;;;;;;;15.20;13.35;;;6.10;99.90;;;;;;5053019;28;20295;-40
2021/04/18 04:44:35;;;;;;;14.68;13.30;;;6.00;99.90;;;;;;5052833;28;20204;-41
2021/04/18 04:47:02;;;;;;;14.95;13.20;;;6.00;99.90;;;;;;5052688;28;20248;-40
2021/04/18 04:49:31;;;;;;;14.65;13.25;;;6.00;99.90;;;;;;5052721;28;20215;-40
2021/04/18 04:51:57;;;;;;;15.77;14.18;;;6.00;99.90;;;;;;5052432;28;20261;-40
2021/04/18 04:54:25;;;;;;;15.80;14.27;;;6.00;99.90;;;;;;5052663;28;20757;-40
2021/04/18 04:56:52;;;;;;;16.52;14.85;;;6.00;99.90;;;;;;5052606;28;20308;-40
2021/04/18 04:59:19;;;;;;;16.08;14.43;;;6.00;99.90;;;;;;5052572;28;20207;-40
2021/04/18 05:01:46;;;;;;;15.27;13.77;;;6.10;99.90;;;;;;5052376;28;20243;-41
2021/04/18 05:04:13;;;;;;;15.75;14.25;;;6.20;99.90;;;;;;5052721;28;20589;-40
2021/04/18 05:06:41;;;;;;;16.73;15.13;;;6.20;99.90;;;;;;5052665;28;20281;-40
2021/04/18 05:09:08;;;;;;;15.68;14.20;;;6.30;99.90;;;;;;5052401;28;20296;-40
2021/04/18 05:11:34;;;;;;;16.05;14.55;;;6.30;99.90;;;;;;5052430;28;20211;-41
2021/04/18 05:14:01;;;;;;;16.90;15.10;;;6.40;99.90;;;;;;5052190;28;20208;-41
2021/04/18 05:16:28;;;;;;;17.10;15.50;;;6.50;99.90;;;;;;5052358;28;20243;-40
2021/04/18 05:18:55;;;;;;;17.48;15.77;;;6.60;99.90;;;;;;5052226;28;20638;-41
2021/04/18 05:21:24;;;;;;;18.23;15.55;;;6.60;99.90;;;;;;5052197;28;20303;-41
2021/04/18 05:23:52;;;;;;;18.42;16.48;;;6.60;99.90;;;;;;5052042;28;20294;-41
2021/04/18 05:26:19;;;;;;;18.00;16.20;;;6.50;99.90;;;;;;5051878;28;20334;-40
2021/04/18 05:28:46;;;;;;;17.38;15.65;;;6.50;99.90;;;;;;5052023;28;20285;-41
2021/04/18 05:31:13;;;;;;;16.83;15.18;;;6.50;99.90;;;;;;5052251;28;20204;-40
2021/04/18 05:33:40;;;;;;;16.33;14.70;;;6.40;99.90;;;;;;5051988;28;20239;-40
2021/04/18 05:36:08;;;;;;;18.52;16.10;;;6.40;99.90;;;;;;5052079;28;20203;-40
2021/04/18 05:38:35;;;;;;;16.48;14.77;;;6.50;99.90;;;;;;5052066;28;20294;-41
2021/04/18 05:41:02;;;;;;;18.60;16.77;;;6.40;99.90;;;;;;5052501;28;20267;-40
2021/04/18 05:43:29;;;;;;;17.30;15.55;;;6.40;99.90;;;;;;5051418;28;20220;-41
2021/04/18 05:45:57;;;;;;;18.73;16.85;;;6.50;99.90;;;;;;5051446;28;20694;-41
2021/04/18 05:48:24;;;;;;;18.20;16.35;;;6.50;99.90;;;;;;5051574;28;20294;-41
2021/04/18 05:50:51;;;;;;;19.27;17.50;;;6.50;99.90;;;;;;5051276;28;20215;-40
2021/04/18 05:53:18;;;;;;;18.95;17.08;;;6.60;99.90;;;;;;5051423;28;20636;-41
2021/04/18 05:55:46;;;;;;;18.58;16.60;;;6.50;99.90;;;;;;5051517;28;20238;-40
2021/04/18 05:58:16;;;;;;;18.85;17.00;;;6.40;99.90;;;;;;5051673;28;20203;-40
2021/04/18 06:00:43;;;;;;;18.75;16.75;;;6.40;99.90;;;;;;5051692;28;20614;-41
2021/04/18 06:03:10;;;;;;;19.05;17.15;;;6.40;99.90;;;;;;5053560;28;20659;-41
2021/04/18 06:05:38;;;;;;;19.55;17.63;;;6.40;99.90;;;;;;5055705;28;20208;-41
2021/04/18 06:08:06;;;;;;;17.50;15.88;;;6.30;99.90;;;;;;5055668;28;20670;-40
2021/04/18 06:10:33;;;;;;;20.38;18.27;;;6.30;99.90;;;;;;5055664;28;20212;-41
2021/04/18 06:13:00;;;;;;;18.75;16.95;;;6.40;99.90;;;;;;5055628;28;20243;-40
2021/04/18 06:15:28;;;;;;;19.42;17.63;;;6.40;99.90;;;;;;5055842;28;20289;-41
2021/04/18 06:17:55;;;;;;;19.30;17.33;;;6.40;99.90;;;;;;5055560;28;20261;-41
2021/04/18 06:20:22;;;;;;;19.77;17.83;;;6.50;99.90;;;;;;5055359;28;20316;-41
2021/04/18 06:22:49;;;;;;;17.35;15.55;;;6.70;99.90;;;;;;5055442;28;20708;-41
2021/04/18 06:25:17;;;;;;;18.95;16.95;;;6.80;99.90;;;;;;5055232;28;20254;-41
2021/04/18 06:27:45;;;;;;;19.30;17.23;;;6.90;99.90;;;;;;5055360;28;20327;-41
2021/04/18 06:30:13;;;;;;;19.75;17.80;;;6.90;99.90;;;;;;5055564;28;20243;-41
2021/04/18 06:32:41;;;;;;;20.20;18.20;;;6.80;99.90;;;;;;5054980;28;20295;-41
2021/04/18 06:35:09;;;;;;;20.08;17.75;;;6.80;99.90;;;;;;5055132;28;20212;-41
2021/04/18 06:37:36;;;;;;;22.13;19.85;;;6.70;99.90;;;;;;5055183;28;20212;-39
2021/04/18 06:40:05;;;;;;;21.45;19.30;;;6.60;99.90;;;;;;5054850;28;20228;-40
2021/04/18 06:42:37;;;;;;;23.17;20.77;;;6.70;99.90;;;;;;5054995;28;20620;-39
2021/04/18 06:45:05;;;;;;;24.05;21.55;;;6.80;99.90;;;;;;5055073;28;20235;-40
2021/04/18 06:47:34;;;;;;;20.95;18.80;;;6.90;99.90;;;;;;5054916;28;20294;-40
2021/04/18 06:50:03;;;;;;;21.67;17.85;;;7.00;99.90;;;;;;5054890;28;20204;-40
2021/04/18 06:52:32;;;;;;;20.98;18.88;;;7.00;99.90;;;;;;5056057;28;20208;-41
2021/04/18 06:55:00;;;;;;;27.05;23.80;;;7.10;99.90;;;;;;5054755;28;20214;-41
2021/04/18 06:57:27;;;;;;;22.58;20.13;;;7.20;99.90;;;;;;5055026;28;20223;-41
2021/04/18 06:59:54;;;;;;;23.77;21.27;;;7.30;99.90;;;;;;5054726;28;20622;-41
2021/04/18 07:02:27;;;;;;;24.15;21.67;;;7.40;99.90;;;;;;5054518;28;20234;-42
2021/04/18 07:05:01;;;;;;;24.85;22.17;;;7.50;99.90;;;;;;5054922;28;20296;-41
2021/04/18 07:07:30;;;;;;;26.13;23.48;;;7.60;99.90;;;;;;5054605;28;20738;-41
2021/04/18 07:09:57;;;;;;;27.30;24.40;;;7.60;99.90;;;;;;5054703;28;20295;-41
2021/04/18 07:12:25;;;;;;;25.33;22.55;;;7.60;99.90;;;;;;5054573;28;20667;-41
2021/04/18 07:14:53;;;;;;;26.83;23.33;;;7.60;99.90;;;;;;5054189;28;20208;-40
2021/04/18 07:17:20;;;;;;;29.52;25.75;;;7.70;99.90;;;;;;5054338;28;20669;-40
2021/04/18 07:19:50;;;;;;;29.27;25.52;;;7.80;99.90;;;;;;5054130;28;20211;-41
2021/04/18 07:22:18;;;;;;;27.13;24.27;;;7.80;99.90;;;;;;5053926;28;20224;-41
2021/04/18 07:24:50;;;;;;;29.30;26.08;;;7.70;99.90;;;;;;5053945;28;20302;-41
2021/04/18 07:27:17;;;;;;;29.13;26.08;;;7.70;99.90;;;;;;5053883;28;20244;-41
2021/04/18 07:29:53;;;;;;;29.63;26.52;;;7.80;99.90;;;;;;5053794;28;20338;-41
2021/04/18 07:32:21;;;;;;;28.05;24.08;;;7.80;99.90;;;;;;5053913;28;20734;-41
2021/04/18 07:34:49;;;;;;;28.75;25.75;;;7.80;99.90;;;;;;5053871;28;20216;-41
2021/04/18 07:37:17;;;;;;;28.88;25.77;;;7.70;99.90;;;;;;5053818;28;20212;-41
2021/04/18 07:39:48;;;;;;;29.67;26.58;;;7.50;99.90;;;;;;5053809;28;20298;-41
2021/04/18 07:42:33;;;;;;;30.92;25.98;;;7.50;99.90;;;;;;5053728;28;20356;-41
2021/04/18 07:45:03;;;;;;;30.52;27.20;;;7.40;99.90;;;;;;5053930;28;20204;-41
2021/04/18 07:47:34;;;;;;;32.70;27.52;;;7.40;99.90;;;;;;5053891;28;20303;-41
2021/04/18 07:50:04;;;;;;;31.08;27.77;;;7.50;99.90;;;;;;5053607;28;20659;-41
2021/04/18 07:52:32;;;;;;;29.88;26.58;;;7.70;99.90;;;;;;5053537;28;20239;-42
2021/04/18 07:55:01;;;;;;;32.55;27.63;;;7.90;99.90;;;;;;5053900;28;20208;-41
2021/04/18 07:57:29;;;;;;;32.25;28.35;;;8.00;99.90;;;;;;5053830;28;20211;-41
2021/04/18 07:59:57;;;;;;;31.77;28.40;;;8.00;99.90;;;;;;5053224;28;20239;-41
2021/04/18 08:02:24;;;;;;;33.33;29.13;;;8.00;99.90;;;;;;5053550;28;20298;-41
2021/04/18 08:04:55;;;;;;;34.38;30.42;;;8.00;99.90;;;;;;5053157;28;20216;-41
2021/04/18 08:07:23;;;;;;;30.88;26.50;;;8.00;99.90;;;;;;5053240;28;20218;-42
2021/04/18 08:10:23;;;;;;;30.98;27.67;;;8.10;99.90;;;;;;5053488;28;20290;-42
2021/04/18 08:13:05;;;;;;;32.80;29.30;;;8.10;99.90;;;;;;5053198;28;20232;-42
2021/04/18 08:15:33;;;;;;;32.60;28.45;;;8.20;99.90;;;;;;5053023;28;20217;-43
2021/04/18 08:18:12;;;;;;;32.65;28.48;;;8.30;99.90;;;;;;5053253;28;20510;-41
2021/04/18 08:20:42;;;;;;;30.73;27.48;;;8.40;99.90;;;;;;5053119;28;20227;-40
2021/04/18 08:23:11;;;;;;;31.50;27.80;;;8.50;99.90;;;;;;5053057;28;20262;-40
2021/04/18 08:25:59;;;;;;;31.48;28.08;;;8.50;99.90;;;;;;5052050;28;20679;-40
2021/04/18 08:28:27;;;;;;;30.65;27.35;;;8.50;99.90;;;;;;5061891;28;20211;-40
2021/04/18 08:31:03;;;;;;;31.00;27.45;;;8.60;99.90;;;;;;5071983;28;20229;-40
2021/04/18 08:33:46;;;;;;;32.80;28.58;;;8.80;99.90;;;;;;5061202;28;20208;-40
2021/04/18 08:36:16;;;;;;;32.80;29.17;;;8.80;99.60;;;;;;5052604;28;20299;-40
2021/04/18 08:38:44;;;;;;;30.75;27.45;;;8.70;99.60;;;;;;5052905;28;20208;-40
2021/04/18 08:41:16;;;;;;;29.88;26.67;;;8.60;99.70;;;;;;5052495;28;20232;-41
2021/04/18 08:43:46;;;;;;;30.60;27.40;;;8.70;99.70;;;;;;5052677;28;20758;-40
2021/04/18 08:46:13;;;;;;;29.58;26.38;;;8.70;99.50;;;;;;5052552;28;20239;-41
2021/04/18 08:48:40;;;;;;;30.48;26.65;;;8.70;99.60;;;;;;5052236;28;20254;-41
2021/04/18 08:51:09;;;;;;;29.50;26.50;;;8.80;99.50;;;;;;5052563;28;20242;-40
2021/04/18 08:53:56;;;;;;;30.83;27.52;;;8.80;99.30;;;;;;5052461;28;20216;-40
2021/04/18 08:56:42;;;;;;;32.45;28.88;;;8.80;99.20;;;;;;5052276;28;20244;-41
2021/04/18 08:59:11;;;;;;;30.35;27.23;;;8.80;99.20;;;;;;5052314;28;20297;-41
2021/04/18 09:01:38;;;;;;;32.28;27.95;;;8.80;99.00;;;;;;5052289;28;20335;-41
2021/04/18 09:04:10;;;;;;;30.67;27.27;;;8.90;98.90;;;;;;5052137;28;20211;-40
2021/04/18 09:06:38;;;;;;;28.75;25.77;;;8.90;98.80;;;;;;5052427;28;20243;-40
2021/04/18 09:09:07;;;;;;;33.15;29.45;;;8.80;98.70;;;;;;5052284;28;20587;-40
2021/04/18 09:11:37;;;;;;;31.85;28.45;;;8.70;98.90;;;;;;5052364;28;20298;-40
2021/04/18 09:14:05;;;;;;;30.92;27.52;;;8.50;99.20;;;;;;5052488;28;20208;-40
2021/04/18 09:16:34;;;;;;;31.95;28.58;;;8.50;99.20;;;;;;5052574;28;20235;-41
2021/04/18 09:19:26;;;;;;;28.88;25.83;;;8.60;99.30;;;;;;5051907;28;20208;-41
2021/04/18 09:22:04;;;;;;;28.27;25.20;;;8.80;99.10;;;;;;5052381;28;20223;-42
2021/04/18 09:24:32;;;;;;;28.40;25.13;;;8.90;98.80;;;;;;5051726;28;20204;-42
2021/04/18 09:27:04;;;;;;;30.85;26.75;;;8.80;98.80;;;;;;5051570;28;20244;-41
2021/04/18 09:29:34;;;;;;;29.17;25.88;;;8.80;98.70;;;;;;5051743;28;20667;-42
2021/04/18 09:32:06;;;;;;;26.90;24.15;;;8.90;98.60;;;;;;5051723;28;20200;-41
2021/04/18 09:34:35;;;;;;;29.88;24.77;;;8.90;98.70;;;;;;5051809;28;20235;-41
2021/04/18 09:37:06;;;;;;;26.35;23.63;;;8.90;98.40;;;;;;5051884;28;20219;-41
2021/04/18 09:39:35;;;;;;;27.38;24.48;;;9.00;98.10;;;;;;5052003;28;20238;-41
2021/04/18 09:42:04;;;;;;;27.70;22.52;;;9.00;98.00;;;;;;5051672;28;20227;-42
2021/04/18 09:44:36;;;;;;;28.13;24.30;;;9.20;97.80;;;;;;5051817;28;20294;-41
2021/04/18 09:47:07;;;;;;;27.67;24.75;;;9.30;97.40;;;;;;5052232;28;20255;-41
2021/04/18 09:49:47;;;;;;;28.00;25.00;;;9.20;97.40;;;;;;5051758;28;20658;-41
2021/04/18 09:52:33;;;;;;;27.10;24.30;;;9.30;97.40;;;;;;5051753;28;20215;-41
2021/04/18 09:55:16;;;;;;;28.33;25.38;;;9.30;97.30;;;;;;5051664;28;20215;-42
2021/04/18 09:57:51;;;;;;;26.55;23.65;;;9.30;97.40;;;;;;5051794;28;20196;-44
2021/04/18 10:00:24;;;;;;;27.30;24.45;;;9.30;97.40;;;;;;5051452;28;20207;-41
2021/04/18 10:03:00;;;;;;;28.27;24.83;;;9.30;97.40;;;;;;5051476;28;20303;-41
2021/04/18 10:05:29;;;;;;;25.52;22.92;;;9.30;97.30;;;;;;5051575;28;20249;-41
2021/04/18 10:08:20;;;;;;;25.40;22.52;;;9.30;97.40;;;;;;5051385;28;20231;-41
2021/04/18 10:10:49;;;;;;;25.05;22.52;;;9.30;97.20;;;;;;5051513;28;20207;-42
2021/04/18 10:13:17;;;;;;;25.05;22.33;;;9.40;97.10;;;;;;5051509;28;20299;-42
2021/04/18 10:15:56;;;;;;;28.45;25.48;;;9.30;96.90;;;;;;5051190;28;20212;-41
2021/04/18 10:18:24;;;;;;;25.98;23.17;;;9.20;97.00;;;;;;5051219;28;20211;-41
2021/04/18 10:20:51;;;;;;;27.42;24.52;;;9.10;97.20;;;;;;5051204;28;20228;-42
2021/04/18 10:23:18;;;;;;;27.20;24.50;;;9.00;97.30;;;;;;5051455;28;20257;-42
2021/04/18 10:25:45;;;;;;;26.52;23.73;;;8.90;97.40;;;;;;5051290;28;20311;-42
2021/04/18 10:28:12;;;;;;;26.42;23.58;;;8.80;97.60;;;;;;5051198;28;20223;-41
2021/04/18 10:30:40;;;;;;;25.88;23.05;;;8.70;97.70;;;;;;5051166;28;20697;-41
2021/04/18 10:33:07;;;;;;;31.17;24.58;;;8.70;97.70;;;;;;5050906;28;20295;-42
2021/04/18 10:35:35;;;;;;;26.92;24.08;;;8.60;97.70;;;;;;5051016;28;20701;-41
2021/04/18 10:38:02;;;;;;;27.67;24.45;;;8.50;97.90;;;;;;5051341;28;20291;-41
2021/04/18 10:40:30;;;;;;;28.17;25.17;;;8.30;98.00;;;;;;5051114;28;20247;-42
2021/04/18 10:42:57;;;;;;;27.83;23.75;;;8.20;98.30;;;;;;5051090;28;20740;-43
2021/04/18 10:45:24;;;;;;;26.33;23.52;;;8.10;98.60;;;;;;5050999;28;20231;-42
2021/04/18 10:47:51;;;;;;;26.58;23.73;;;8.00;98.60;;;;;;5051027;28;20282;-41
2021/04/18 10:50:18;;;;;;;25.88;23.13;;;7.90;98.70;;;;;;5054728;28;20216;-41
2021/04/18 10:52:47;;;;;;;26.23;23.50;;;7.90;98.70;;;;;;5054732;28;20291;-41
2021/04/18 10:55:14;;;;;;;25.08;22.40;;;8.00;98.70;;;;;;5054627;28;20246;-41
2021/04/18 10:57:41;;;;;;;25.40;22.30;;;8.00;98.70;;;;;;5054545;28;20299;-42
2021/04/18 11:00:09;;;;;;;24.45;21.75;;;8.00;98.70;;;;;;5054647;28;20518;-41
2021/04/18 11:02:36;;;;;;;24.88;22.27;;;8.00;98.60;;;;;;5054559;28;20228;-41
2021/04/18 11:05:04;;;;;;;26.77;23.88;;;8.10;98.60;;;;;;5054569;28;20211;-41
2021/04/18 11:07:31;;;;;;;25.98;23.13;;;8.20;98.40;;;;;;5054497;28;20204;-41
2021/04/18 11:09:59;;;;;;;24.40;21.88;;;8.40;98.20;;;;;;5054211;28;20212;-41
2021/04/18 11:12:26;;;;;;;23.65;20.52;;;8.50;98.30;;;;;;5054295;28;20204;-41
2021/04/18 11:14:53;;;;;;;25.08;22.45;;;8.70;97.80;;;;;;5054738;28;20243;-41
2021/04/18 11:17:20;;;;;;;24.75;22.10;;;8.80;97.60;;;;;;5054510;28;20222;-42
2021/04/18 11:19:48;;;;;;;24.75;21.83;;;8.90;97.30;;;;;;5054389;28;20247;-43
2021/04/18 11:22:16;;;;;;;24.63;21.20;;;9.20;97.20;;;;;;5054173;28;20236;-41
2021/04/18 11:24:43;;;;;;;21.83;19.63;;;9.30;96.90;;;;;;5053965;28;20750;-41
2021/04/18 11:27:10;;;;;;;22.63;20.25;;;9.40;96.70;;;;;;5053775;28;20274;-42
2021/04/18 11:29:39;;;;;;;23.33;20.83;;;9.40;96.60;;;;;;5054538;28;20208;-42
2021/04/18 11:32:06;;;;;;;20.92;18.73;;;9.30;96.60;;;;;;5098298;23;20794;-42
2021/04/18 11:34:33;;;;;;;20.27;18.27;;;9.30;96.50;;;;;;5073801;28;20251;-42
2021/04/18 11:37:01;;;;;;;21.30;19.13;;;9.40;96.60;;;;;;5073880;28;20230;-41
2021/04/18 11:39:28;;;;;;;21.70;19.05;;;9.50;96.30;;;;;;5073659;28;20239;-44
2021/04/18 11:41:56;;;;;;;19.70;17.63;;;9.60;96.10;;;;;;5073835;28;20755;-41
2021/04/18 11:44:23;;;;;;;21.38;18.88;;;9.80;95.90;;;;;;5073958;28;20211;-42
2021/04/18 11:46:50;;;;;;;21.33;18.80;;;10.00;95.60;;;;;;5073901;28;20220;-41
2021/04/18 11:49:19;;;;;;;21.90;19.30;;;10.30;95.00;;;;;;5073864;28;20258;-42
2021/04/18 11:51:47;;;;;;;21.65;19.42;;;10.50;94.60;;;;;;5073728;28;20218;-42
2021/04/18 11:54:14;;;;;;;20.77;18.58;;;10.70;94.40;;;;;;5073705;28;20303;-42
2021/04/18 11:56:41;;;;;;;21.02;18.77;;;11.00;94.40;;;;;;5073643;28;20580;-43
2021/04/18 11:59:08;;;;;;;20.17;18.02;;;11.30;93.90;;;;;;5073644;28;20242;-42
2021/04/18 12:01:37;;;;;;;18.90;16.98;;;11.40;93.40;;;;;;5072537;28;20257;-44
2021/04/18 12:04:04;;;;;;;20.20;18.20;;;11.40;93.20;;;;;;5073613;28;20203;-43
2021/04/18 12:06:32;;;;;;;21.40;18.63;;;11.20;93.50;;;;;;5073388;28;20214;-42
2021/04/18 12:08:59;;;;;;;20.83;18.65;;;11.00;93.80;;;;;;5073253;28;20614;-42
2021/04/18 12:11:26;;;;;;;19.63;17.65;;;10.90;93.80;;;;;;5073344;28;20638;-43
2021/04/18 12:13:53;;;;;;;19.17;17.27;;;10.80;93.90;;;;;;5073346;28;20238;-42
2021/04/18 12:16:19;;;;;;;19.58;17.58;;;10.70;94.00;;;;;;5073228;28;20306;-42
2021/04/18 12:18:48;;;;;;;19.10;17.10;;;10.70;94.00;;;;;;5073258;28;20283;-42
2021/04/18 12:21:15;;;;;;;18.85;17.00;;;10.80;94.00;;;;;;5072850;28;20751;-42
2021/04/18 12:23:42;;;;;;;17.92;15.23;;;11.00;93.60;;;;;;5073053;28;20645;-43
2021/04/18 12:26:09;;;;;;;17.60;15.70;;;11.10;93.40;;;;;;5073223;28;20272;-43
2021/04/18 12:28:37;;;;;;;17.10;15.38;;;11.10;93.20;;;;;;5072881;28;20214;-42
2021/04/18 12:31:07;;;;;;;17.60;15.80;;;11.20;93.20;;;;;;5072892;28;20231;-41
2021/04/18 12:33:34;;;;;;;16.60;14.98;;;11.40;93.00;;;;;;5072948;28;20294;-42
2021/04/18 12:36:04;;;;;;;16.85;15.05;;;11.60;92.70;;;;;;5072749;28;20328;-45
2021/04/18 12:38:35;;;;;;;15.50;13.93;;;11.60;92.20;;;;;;5072533;28;20235;-42
2021/04/18 12:41:02;;;;;;;13.48;12.18;;;11.50;92.30;;;;;;5072615;28;20327;-42
2021/04/18 12:43:29;;;;;;;14.98;13.57;;;11.30;92.30;;;;;;5072690;28;20290;-42
2021/04/18 12:45:56;;;;;;;15.07;13.63;;;11.00;92.20;;;;;;5072600;28;20203;-43